Time;durP1;ratioP1;P1;durP2;ratioP2;P2;SDS_P1;SDS_P2;PMS_P1;PMS_P2;Temp;Humidity;BMP_temperature;BMP_pressure;BME280_temperature;BME280_humidity;BME280_pressure;Samples;Min_cycle;Max_cycle;Signal;HPM_P1;HPM_P2
2023/10/23 00:00:54;;;;;;;7.07;1.60;;;11.00;99.90;;;;;;5031936;28;20049;-77
2023/10/23 00:03:21;;;;;;;2.75;1.67;;;11.00;99.90;;;;;;5036677;28;20049;-78
2023/10/23 00:05:48;;;;;;;7.97;1.27;;;11.00;99.90;;;;;;5031740;28;20049;-79
2023/10/23 00:08:15;;;;;;;1.42;0.68;;;11.00;99.90;;;;;;5039256;28;20090;-78
2023/10/23 00:10:44;;;;;;;4.38;1.00;;;10.90;99.90;;;;;;5044232;28;20041;-77
2023/10/23 00:13:11;;;;;;;1.02;0.47;;;10.90;99.90;;;;;;5034068;28;20084;-78
2023/10/23 00:15:39;;;;;;;1.65;0.52;;;10.90;99.90;;;;;;5025895;28;20058;-78
2023/10/23 00:18:06;;;;;;;4.05;1.23;;;10.90;99.90;;;;;;5029608;28;20124;-78
2023/10/23 00:20:32;;;;;;;2.10;1.48;;;10.90;99.90;;;;;;5029199;28;20511;-79
2023/10/23 00:22:59;;;;;;;3.38;1.05;;;10.90;99.90;;;;;;5041198;28;20103;-78
2023/10/23 00:25:26;;;;;;;4.78;1.17;;;10.90;99.90;;;;;;5029375;28;20068;-79
2023/10/23 00:27:53;;;;;;;4.10;1.30;;;10.90;99.90;;;;;;5031409;28;20120;-79
2023/10/23 00:30:19;;;;;;;1.83;0.85;;;10.80;99.90;;;;;;5022532;28;20060;-79
2023/10/23 00:32:46;;;;;;;3.05;0.90;;;10.80;99.90;;;;;;5030990;28;20521;-78
2023/10/23 00:35:13;;;;;;;3.13;0.95;;;10.80;99.90;;;;;;5032761;28;20045;-77
2023/10/23 00:37:40;;;;;;;3.95;1.00;;;10.70;99.90;;;;;;5039789;28;20073;-78
2023/10/23 00:40:07;;;;;;;2.88;1.35;;;10.70;99.90;;;;;;5028248;28;20421;-78
2023/10/23 00:42:34;;;;;;;4.35;1.80;;;10.70;99.90;;;;;;5037121;28;20046;-79
2023/10/23 00:45:01;;;;;;;3.80;0.70;;;10.70;99.90;;;;;;5021861;28;20409;-78
2023/10/23 00:47:28;;;;;;;7.25;1.13;;;10.60;99.90;;;;;;5027775;28;20073;-77
2023/10/23 00:49:57;;;;;;;4.35;0.93;;;10.60;99.90;;;;;;5027592;28;20485;-77
2023/10/23 00:52:23;;;;;;;2.20;0.70;;;10.60;99.90;;;;;;5028819;28;20073;-78
2023/10/23 00:54:51;;;;;;;4.32;0.90;;;10.60;99.90;;;;;;5028620;28;20068;-79
2023/10/23 00:57:18;;;;;;;2.38;0.90;;;10.60;99.90;;;;;;5028501;28;20054;-79
2023/10/23 00:59:45;;;;;;;2.88;0.93;;;10.60;99.90;;;;;;5021764;28;20513;-77
2023/10/23 01:02:12;;;;;;;4.72;0.90;;;10.50;99.90;;;;;;5025925;28;20104;-77
2023/10/23 01:04:39;;;;;;;2.22;0.93;;;10.50;99.90;;;;;;5032378;28;20099;-78
2023/10/23 01:07:06;;;;;;;5.13;0.80;;;10.50;99.90;;;;;;5037393;28;20087;-78
2023/10/23 01:09:32;;;;;;;4.90;1.48;;;10.40;99.90;;;;;;5025013;28;20521;-78
2023/10/23 01:11:59;;;;;;;4.47;1.00;;;10.40;99.90;;;;;;5029049;28;20087;-79
2023/10/23 01:14:26;;;;;;;1.02;0.70;;;10.40;99.90;;;;;;5020995;28;20054;-80
2023/10/23 01:16:52;;;;;;;3.78;1.02;;;10.40;99.90;;;;;;5033735;28;20091;-78
2023/10/23 01:19:21;;;;;;;3.63;0.90;;;10.30;99.90;;;;;;5032232;28;20046;-78
2023/10/23 01:21:47;;;;;;;2.38;1.08;;;10.30;99.90;;;;;;5032812;28;20127;-79
2023/10/23 01:24:16;;;;;;;2.78;0.90;;;10.30;99.90;;;;;;5024915;28;20586;-78
2023/10/23 01:26:43;;;;;;;6.28;1.00;;;10.30;99.90;;;;;;5030942;28;20046;-79
2023/10/23 01:29:09;;;;;;;3.28;0.95;;;10.20;99.90;;;;;;5019402;28;20041;-79
2023/10/23 01:31:36;;;;;;;3.10;0.80;;;10.20;99.90;;;;;;5031626;28;20461;-78
2023/10/23 01:34:03;;;;;;;4.68;0.77;;;10.20;99.90;;;;;;5032332;28;20082;-79
2023/10/23 01:36:29;;;;;;;2.58;1.10;;;10.10;99.90;;;;;;5028630;28;20085;-78
2023/10/23 01:38:56;;;;;;;2.70;0.93;;;10.10;99.90;;;;;;5027020;28;20128;-79
2023/10/23 01:41:23;;;;;;;2.50;0.80;;;10.10;99.90;;;;;;5028161;28;20085;-79
2023/10/23 01:43:50;;;;;;;3.88;1.13;;;10.00;99.90;;;;;;5021544;28;20077;-79
2023/10/23 01:46:16;;;;;;;4.18;0.80;;;10.00;99.90;;;;;;5028970;28;20103;-78
2023/10/23 01:48:43;;;;;;;2.95;0.75;;;10.00;99.90;;;;;;5031512;28;20471;-79
2023/10/23 01:51:10;;;;;;;2.13;0.70;;;10.00;99.90;;;;;;5029756;28;20048;-78
2023/10/23 01:53:36;;;;;;;3.45;1.00;;;9.90;99.90;;;;;;5022696;28;20054;-78
2023/10/23 01:56:09;;;;;;;3.33;1.00;;;9.90;99.90;;;;;;5033227;28;20092;-79
2023/10/23 01:58:36;;;;;;;3.97;1.10;;;9.80;99.90;;;;;;5025309;28;20081;-76
2023/10/23 02:01:03;;;;;;;2.65;1.17;;;9.80;99.90;;;;;;5027997;28;20048;-79
2023/10/23 02:03:31;;;;;;;2.95;1.30;;;9.80;99.90;;;;;;5027741;28;20512;-76
2023/10/23 02:05:58;;;;;;;3.13;0.98;;;9.70;99.90;;;;;;5030352;28;20064;-77
2023/10/23 02:08:25;;;;;;;4.32;1.23;;;9.70;99.90;;;;;;5020697;28;20054;-77
2023/10/23 02:10:52;;;;;;;3.38;0.90;;;9.70;99.90;;;;;;5024912;28;20577;-78
2023/10/23 02:13:19;;;;;;;2.83;0.80;;;9.70;99.90;;;;;;5018208;28;20564;-78
2023/10/23 02:15:46;;;;;;;4.68;1.10;;;9.60;99.90;;;;;;5031123;28;20053;-77
2023/10/23 02:18:13;;;;;;;3.88;0.82;;;9.60;99.90;;;;;;5027116;28;20045;-77
2023/10/23 02:20:39;;;;;;;1.27;0.70;;;9.60;99.90;;;;;;5027205;28;20084;-77
2023/10/23 02:23:06;;;;;;;3.10;0.90;;;9.60;99.90;;;;;;5022124;28;20080;-78
2023/10/23 02:25:33;;;;;;;5.70;0.95;;;9.50;99.90;;;;;;5022441;28;20138;-77
2023/10/23 02:27:59;;;;;;;6.80;1.10;;;9.50;99.90;;;;;;5024793;28;20047;-78
2023/10/23 02:30:26;;;;;;;1.85;0.80;;;9.50;99.90;;;;;;5030856;28;20472;-78
2023/10/23 02:32:53;;;;;;;2.95;1.20;;;9.50;99.90;;;;;;5028886;28;20046;-78
2023/10/23 02:35:20;;;;;;;1.98;0.73;;;9.50;99.90;;;;;;5027300;28;20593;-77
2023/10/23 02:37:49;;;;;;;5.72;1.13;;;9.40;99.90;;;;;;5021940;28;20080;-78
2023/10/23 02:40:16;;;;;;;2.33;1.05;;;9.40;99.90;;;;;;5024646;28;20103;-77
2023/10/23 02:42:42;;;;;;;7.68;1.13;;;9.40;99.90;;;;;;5021959;28;20100;-77
2023/10/23 02:45:10;;;;;;;2.05;0.80;;;9.40;99.90;;;;;;5032550;28;20063;-77
2023/10/23 02:47:37;;;;;;;2.25;0.85;;;9.40;99.90;;;;;;5025063;28;20467;-77
2023/10/23 02:50:05;;;;;;;2.17;0.80;;;9.30;99.90;;;;;;5030490;28;20135;-78
2023/10/23 02:52:32;;;;;;;4.82;1.10;;;9.40;99.90;;;;;;5020730;28;20050;-77
2023/10/23 02:54:59;;;;;;;3.30;0.90;;;9.30;99.90;;;;;;5025768;28;20052;-78
2023/10/23 02:57:25;;;;;;;3.00;0.63;;;9.30;99.90;;;;;;5025676;28;20109;-78
2023/10/23 02:59:54;;;;;;;4.95;0.82;;;9.30;99.90;;;;;;5036639;28;20485;-78
2023/10/23 03:02:22;;;;;;;2.72;1.00;;;9.30;99.90;;;;;;5024003;28;20068;-78
2023/10/23 03:04:48;;;;;;;1.67;0.70;;;9.30;99.90;;;;;;5027448;28;20077;-78
2023/10/23 03:07:15;;;;;;;4.22;1.45;;;9.30;99.90;;;;;;5021044;28;20065;-78
2023/10/23 03:09:42;;;;;;;1.23;0.80;;;9.30;99.90;;;;;;5022625;28;20057;-77
2023/10/23 03:12:09;;;;;;;2.67;0.70;;;9.30;99.90;;;;;;5032935;28;20045;-76
2023/10/23 03:14:35;;;;;;;3.50;0.82;;;9.30;99.90;;;;;;5032299;28;20517;-77
2023/10/23 03:17:02;;;;;;;2.38;0.82;;;9.40;99.90;;;;;;5053301;28;20112;-77
2023/10/23 03:19:29;;;;;;;1.65;0.60;;;9.40;99.90;;;;;;5028732;28;20137;-78
2023/10/23 03:21:56;;;;;;;2.92;0.82;;;9.40;99.90;;;;;;5031060;28;20053;-77
2023/10/23 03:24:23;;;;;;;6.15;0.95;;;9.40;99.90;;;;;;5024957;28;20049;-78
2023/10/23 03:26:49;;;;;;;5.25;0.70;;;9.40;99.90;;;;;;5032662;28;20125;-79
2023/10/23 03:29:16;;;;;;;2.72;0.80;;;9.50;99.90;;;;;;5030016;28;20103;-78
2023/10/23 03:31:43;;;;;;;1.80;1.10;;;9.50;99.90;;;;;;5023627;28;20115;-78
2023/10/23 03:34:10;;;;;;;2.63;0.90;;;9.50;99.90;;;;;;5032963;28;20045;-78
2023/10/23 03:36:37;;;;;;;1.42;0.75;;;9.50;99.90;;;;;;5022574;28;20124;-79
2023/10/23 03:39:03;;;;;;;4.05;0.80;;;9.60;99.90;;;;;;5019455;28;20132;-79
2023/10/23 03:41:30;;;;;;;4.45;0.95;;;9.60;99.90;;;;;;5031069;28;20050;-78
2023/10/23 03:43:57;;;;;;;5.93;1.10;;;9.60;99.90;;;;;;5036965;28;20081;-77
2023/10/23 03:46:24;;;;;;;4.18;0.95;;;9.60;99.90;;;;;;5028524;28;20050;-77
2023/10/23 03:48:52;;;;;;;3.25;1.15;;;9.70;99.90;;;;;;5030057;28;20438;-79
2023/10/23 03:51:19;;;;;;;3.53;0.85;;;9.70;99.90;;;;;;5024103;28;20524;-78
2023/10/23 03:53:46;;;;;;;2.60;0.93;;;9.70;99.90;;;;;;5023528;28;20050;-79
2023/10/23 03:56:12;;;;;;;7.82;1.17;;;9.80;99.90;;;;;;5032218;28;20041;-77
2023/10/23 03:58:40;;;;;;;2.50;1.20;;;9.80;99.90;;;;;;5029648;28;20116;-79
2023/10/23 04:01:06;;;;;;;4.72;1.00;;;9.80;99.90;;;;;;5026833;28;20053;-78
2023/10/23 04:03:33;;;;;;;4.47;1.08;;;9.80;99.90;;;;;;5024650;28;20464;-79
2023/10/23 04:06:03;;;;;;;2.42;1.13;;;9.90;99.90;;;;;;5025167;28;20046;-79
2023/10/23 04:08:30;;;;;;;5.35;1.10;;;9.90;99.90;;;;;;5023302;28;20084;-79
2023/10/23 04:10:58;;;;;;;3.85;0.82;;;9.90;99.90;;;;;;5030463;28;20166;-77
2023/10/23 04:13:25;;;;;;;2.35;0.82;;;9.90;99.90;;;;;;5029139;28;20101;-78
2023/10/23 04:15:57;;;;;;;2.85;0.88;;;9.90;99.90;;;;;;5032581;28;20054;-79
2023/10/23 04:18:25;;;;;;;1.55;0.80;;;9.90;99.90;;;;;;5019672;28;20053;-79
2023/10/23 04:21:09;;;;;;;6.68;1.63;;;9.90;99.90;;;;;;5022775;28;20049;-78
2023/10/23 04:23:37;;;;;;;3.63;1.00;;;9.90;99.90;;;;;;5029027;28;20073;-79
2023/10/23 04:26:08;;;;;;;2.45;1.58;;;9.90;99.90;;;;;;5036218;28;20046;-79
2023/10/23 04:28:35;;;;;;;;;;;9.90;99.90;;;;;;5027987;28;20461;-79
2023/10/23 04:31:03;;;;;;;4.80;2.95;;;9.90;99.90;;;;;;5025668;28;19971;-79
2023/10/23 04:33:30;;;;;;;3.88;3.20;;;9.90;99.90;;;;;;5022545;28;20054;-79
2023/10/23 04:35:58;;;;;;;8.85;4.07;;;9.80;99.90;;;;;;5024303;28;20556;-79
2023/10/23 04:38:26;;;;;;;6.00;2.58;;;9.80;99.90;;;;;;5029191;28;20077;-78
2023/10/23 04:40:53;;;;;;;4.78;2.80;;;9.80;99.90;;;;;;5031047;28;20049;-78
2023/10/23 04:43:20;;;;;;;3.33;2.03;;;9.80;99.90;;;;;;5031176;28;20409;-78
2023/10/23 04:45:48;;;;;;;4.35;2.10;;;9.80;99.90;;;;;;5026558;28;20053;-78
2023/10/23 04:48:15;;;;;;;4.57;1.95;;;9.80;99.90;;;;;;5026374;28;20065;-79
2023/10/23 04:50:42;;;;;;;5.65;2.63;;;9.80;99.90;;;;;;5027516;28;20049;-78
2023/10/23 04:53:09;;;;;;;4.45;3.00;;;9.80;99.90;;;;;;5039511;28;20045;-79
2023/10/23 04:55:38;;;;;;;6.07;2.85;;;9.80;99.90;;;;;;5029265;28;20060;-79
2023/10/23 04:58:06;;;;;;;5.20;2.67;;;9.80;99.90;;;;;;5031662;28;20071;-79
2023/10/23 05:00:38;;;;;;;4.20;1.98;;;9.80;99.90;;;;;;5025308;28;20050;-79
2023/10/23 05:03:05;;;;;;;5.35;2.55;;;9.80;99.90;;;;;;5024848;28;20049;-79
2023/10/23 05:05:32;;;;;;;5.10;2.60;;;9.90;99.90;;;;;;5030260;28;20076;-79
2023/10/23 05:07:59;;;;;;;4.78;2.80;;;9.90;99.90;;;;;;5036187;28;20046;-78
2023/10/23 05:10:26;;;;;;;4.18;2.08;;;9.90;99.90;;;;;;5042358;28;20046;-77
2023/10/23 05:12:53;;;;;;;3.95;2.30;;;9.90;99.90;;;;;;5030156;28;20053;-77
2023/10/23 05:15:20;;;;;;;4.85;1.90;;;9.90;99.90;;;;;;5028928;28;20409;-81
2023/10/23 05:17:47;;;;;;;4.78;1.88;;;9.90;99.90;;;;;;5026118;28;20062;-78
2023/10/23 05:20:14;;;;;;;7.93;1.98;;;10.00;99.90;;;;;;5029814;28;20052;-78
2023/10/23 05:22:41;;;;;;;6.78;1.98;;;10.00;99.90;;;;;;5030164;28;20501;-78
2023/10/23 05:25:08;;;;;;;3.50;1.95;;;10.00;99.90;;;;;;5030659;28;20050;-78
2023/10/23 05:27:36;;;;;;;3.75;2.33;;;10.00;99.90;;;;;;5026971;28;20054;-79
2023/10/23 05:30:04;;;;;;;2.95;1.90;;;10.00;99.90;;;;;;5026915;28;20080;-78
2023/10/23 05:32:35;;;;;;;8.57;1.90;;;10.00;99.90;;;;;;5022883;28;20049;-77
2023/10/23 05:35:03;;;;;;;7.78;2.38;;;10.00;99.90;;;;;;5031969;28;20140;-78
2023/10/23 05:37:33;;;;;;;6.93;2.45;;;10.00;99.90;;;;;;5035203;28;20057;-79
2023/10/23 05:39:59;;;;;;;3.93;2.07;;;10.00;99.90;;;;;;5028556;28;20141;-78
2023/10/23 05:42:26;;;;;;;7.55;2.22;;;10.10;99.90;;;;;;5026144;28;20048;-77
2023/10/23 05:44:53;;;;;;;7.05;2.00;;;10.10;99.90;;;;;;5025607;28;20046;-78
2023/10/23 05:47:20;;;;;;;5.07;1.65;;;10.10;99.90;;;;;;5027874;28;20068;-77
2023/10/23 05:49:46;;;;;;;5.55;1.88;;;10.10;99.90;;;;;;5034503;28;20080;-78
2023/10/23 05:52:13;;;;;;;13.27;7.68;;;10.10;99.90;;;;;;5033408;28;20048;-78
2023/10/23 05:54:40;;;;;;;11.90;5.43;;;10.10;99.90;;;;;;5025275;28;20081;-78
2023/10/23 05:57:07;;;;;;;8.77;4.55;;;10.10;99.90;;;;;;5028674;28;20417;-77
2023/10/23 05:59:33;;;;;;;8.05;4.55;;;10.10;99.90;;;;;;5025651;28;20096;-77
2023/10/23 06:02:00;;;;;;;7.38;4.50;;;10.10;99.90;;;;;;5035394;28;20104;-78
2023/10/23 06:04:27;;;;;;;8.07;4.65;;;10.10;99.90;;;;;;5033149;28;20136;-78
2023/10/23 06:06:54;;;;;;;11.52;5.13;;;10.20;99.90;;;;;;5029967;28;20056;-79
2023/10/23 06:09:21;;;;;;;7.88;4.75;;;10.20;99.90;;;;;;5029400;28;20041;-78
2023/10/23 06:11:47;;;;;;;10.23;4.43;;;10.20;99.90;;;;;;5023042;28;20041;-79
2023/10/23 06:14:14;;;;;;;10.20;3.55;;;10.20;99.90;;;;;;5028200;28;20447;-80
2023/10/23 06:16:41;;;;;;;6.10;3.67;;;10.20;99.90;;;;;;5017563;28;20053;-79
2023/10/23 06:19:08;;;;;;;9.70;3.03;;;10.20;99.90;;;;;;5033764;28;20045;-78
2023/10/23 06:21:35;;;;;;;5.60;3.00;;;10.20;99.90;;;;;;5029946;28;20107;-78
2023/10/23 06:24:03;;;;;;;5.30;2.50;;;10.20;99.90;;;;;;5034586;28;20065;-77
2023/10/23 06:26:30;;;;;;;5.07;2.70;;;10.20;99.90;;;;;;5036146;28;20053;-78
2023/10/23 06:28:57;;;;;;;8.73;2.63;;;10.20;99.90;;;;;;5032293;28;20046;-79
2023/10/23 06:31:24;;;;;;;7.03;2.35;;;10.20;99.90;;;;;;5036079;28;20135;-77
2023/10/23 06:33:52;;;;;;;7.07;2.72;;;10.20;99.90;;;;;;5038186;28;20544;-76
2023/10/23 06:36:19;;;;;;;7.53;2.60;;;10.30;99.90;;;;;;5032423;28;20045;-78
2023/10/23 06:38:46;;;;;;;4.40;2.38;;;10.20;99.90;;;;;;5025346;28;20144;-78
2023/10/23 06:41:13;;;;;;;9.23;2.80;;;10.30;99.90;;;;;;5022953;28;20088;-78
2023/10/23 06:43:41;;;;;;;8.23;3.13;;;10.30;99.90;;;;;;5026762;28;20069;-78
2023/10/23 06:46:07;;;;;;;8.95;3.58;;;10.30;99.90;;;;;;5026517;28;20041;-79
2023/10/23 06:48:34;;;;;;;6.20;3.30;;;10.30;99.90;;;;;;5030203;28;20533;-78
2023/10/23 06:51:01;;;;;;;8.32;3.88;;;10.30;99.90;;;;;;5031608;28;20045;-77
2023/10/23 06:53:28;;;;;;;7.15;3.70;;;10.30;99.90;;;;;;5037479;28;20055;-77
2023/10/23 06:55:55;;;;;;;10.23;4.03;;;10.30;99.90;;;;;;5024597;28;20081;-76
2023/10/23 06:58:22;;;;;;;7.32;3.65;;;10.40;99.90;;;;;;5020566;28;20544;-77
2023/10/23 07:00:49;;;;;;;9.10;4.15;;;10.40;99.90;;;;;;5028010;28;20551;-77
2023/10/23 07:03:16;;;;;;;8.02;3.75;;;10.40;99.90;;;;;;5031253;28;20053;-79
2023/10/23 07:05:43;;;;;;;12.60;3.80;;;10.40;99.90;;;;;;5024895;28;20080;-78
2023/10/23 07:08:10;;;;;;;5.38;3.28;;;10.50;99.90;;;;;;5028871;28;20048;-79
2023/10/23 07:10:37;;;;;;;11.48;3.80;;;10.50;99.90;;;;;;5018462;28;20046;-79
2023/10/23 07:13:04;;;;;;;8.48;4.13;;;10.50;99.90;;;;;;5026880;28;20049;-79
2023/10/23 07:15:51;;;;;;;5.57;3.20;;;10.50;99.90;;;;;;5029631;28;20738;-79
2023/10/23 07:18:18;;;;;;;6.38;3.22;;;10.50;99.90;;;;;;5038391;28;20517;-77
2023/10/23 07:20:56;;;;;;;11.60;5.68;;;10.60;99.90;;;;;;5024042;28;20050;-78
2023/10/23 07:23:23;;;;;;;34.33;14.07;;;10.60;99.90;;;;;;5026540;28;20397;-79
2023/10/23 07:26:07;;;;;;;30.13;11.88;;;10.60;99.90;;;;;;5017844;28;20275;-78
2023/10/23 07:28:38;;;;;;;15.63;8.23;;;10.70;99.90;;;;;;5027642;28;20044;-78
2023/10/23 07:31:05;;;;;;;19.50;8.20;;;10.70;99.90;;;;;;5028474;28;20052;-78
2023/10/23 07:33:32;;;;;;;7.45;3.22;;;10.70;99.90;;;;;;5033956;28;20052;-78
2023/10/23 07:36:04;;;;;;;9.35;4.63;;;10.80;99.90;;;;;;5023218;28;20085;-79
2023/10/23 07:38:32;;;;;;;8.88;3.47;;;10.80;99.90;;;;;;5023226;28;20060;-77
2023/10/23 07:40:58;;;;;;;15.10;5.40;;;10.80;99.90;;;;;;5016643;28;20069;-77
2023/10/23 07:43:26;;;;;;;12.95;4.57;;;10.90;99.90;;;;;;5031414;28;20045;-77
2023/10/23 07:45:53;;;;;;;6.03;4.13;;;10.90;99.90;;;;;;5029558;28;20061;-77
2023/10/23 07:48:40;;;;;;;10.10;4.88;;;10.90;99.90;;;;;;5022624;28;20080;-78
2023/10/23 07:51:06;;;;;;;9.40;4.20;;;11.00;99.90;;;;;;5030286;28;20045;-77
2023/10/23 07:53:35;;;;;;;5.78;3.60;;;11.00;99.90;;;;;;5034261;28;20077;-78
2023/10/23 07:56:05;;;;;;;8.05;3.95;;;11.00;99.90;;;;;;5021276;28;20045;-78
2023/10/23 07:58:32;;;;;;;7.18;4.03;;;11.00;99.90;;;;;;5030417;28;20416;-78
2023/10/23 08:01:06;;;;;;;8.65;4.22;;;11.10;99.90;;;;;;5028668;28;20068;-78
2023/10/23 08:03:34;;;;;;;12.70;5.13;;;11.10;99.90;;;;;;5017572;28;20042;-78
2023/10/23 08:06:03;;;;;;;8.48;4.28;;;11.10;99.90;;;;;;5024375;28;20084;-79
2023/10/23 08:08:38;;;;;;;11.25;4.38;;;11.10;99.90;;;;;;5028101;28;20044;-79
2023/10/23 08:11:07;;;;;;;7.88;4.75;;;11.10;99.90;;;;;;5022290;28;20045;-79
2023/10/23 08:13:34;;;;;;;6.97;4.13;;;11.10;99.90;;;;;;5030455;28;20049;-79
2023/10/23 08:16:03;;;;;;;13.90;4.90;;;11.20;99.90;;;;;;5032070;28;20046;-78
2023/10/23 08:18:31;;;;;;;7.45;4.40;;;11.20;99.90;;;;;;5030810;28;20080;-78
2023/10/23 08:21:14;;;;;;;10.00;4.00;;;11.20;99.90;;;;;;5030111;28;20082;-79
2023/10/23 08:23:43;;;;;;;10.30;3.88;;;11.30;99.90;;;;;;5027226;28;20068;-78
2023/10/23 08:26:11;;;;;;;10.80;3.88;;;11.30;99.90;;;;;;5028048;28;20042;-77
2023/10/23 08:28:38;;;;;;;9.50;4.20;;;11.30;99.90;;;;;;5032708;28;20080;-78
2023/10/23 08:31:08;;;;;;;7.47;3.92;;;11.40;99.90;;;;;;5032291;28;20084;-79
2023/10/23 08:33:51;;;;;;;7.10;3.83;;;11.40;99.90;;;;;;5024767;28;20046;-79
2023/10/23 08:36:17;;;;;;;6.22;3.75;;;11.50;99.90;;;;;;5028245;28;20472;-78
2023/10/23 08:38:44;;;;;;;10.57;3.80;;;11.50;99.90;;;;;;5028034;28;20073;-78
2023/10/23 08:41:12;;;;;;;7.72;3.80;;;11.60;99.90;;;;;;5036242;28;20050;-79
2023/10/23 08:43:40;;;;;;;10.07;4.57;;;11.60;99.90;;;;;;5031701;28;20111;-78
2023/10/23 08:46:08;;;;;;;8.00;4.38;;;11.70;99.90;;;;;;5035166;28;20134;-78
2023/10/23 08:48:38;;;;;;;9.63;4.38;;;11.70;99.90;;;;;;5026662;28;20049;-78
2023/10/23 08:51:07;;;;;;;11.23;5.45;;;11.80;99.90;;;;;;5028423;28;20052;-78
2023/10/23 08:53:44;;;;;;;10.27;5.35;;;11.90;99.90;;;;;;5024092;28;20050;-79
2023/10/23 08:56:18;;;;;;;12.23;7.28;;;11.90;99.90;;;;;;5035132;28;20072;-77
2023/10/23 08:58:51;;;;;;;13.82;7.63;;;12.00;99.90;;;;;;5036169;28;20070;-78
2023/10/23 09:01:18;;;;;;;17.73;6.60;;;12.00;99.90;;;;;;5032307;28;20085;-79
2023/10/23 09:03:46;;;;;;;13.93;6.60;;;12.10;99.90;;;;;;5024308;28;20042;-79
2023/10/23 09:06:30;;;;;;;11.68;4.57;;;12.10;99.90;;;;;;5035996;28;20044;-78
2023/10/23 09:08:57;;;;;;;10.60;4.80;;;12.10;99.90;;;;;;5035098;28;20105;-78
2023/10/23 09:11:44;;;;;;;7.03;4.40;;;12.20;99.90;;;;;;5040300;28;20090;-77
2023/10/23 09:14:24;;;;;;;11.05;4.35;;;12.20;99.90;;;;;;5034830;28;20045;-78
2023/10/23 09:16:53;;;;;;;10.82;4.53;;;12.20;99.90;;;;;;5034814;28;20041;-79
2023/10/23 09:19:37;;;;;;;9.48;4.47;;;12.20;99.90;;;;;;5029716;28;20076;-77
2023/10/23 09:22:08;;;;;;;10.93;4.43;;;12.20;99.90;;;;;;5036189;28;20046;-78
2023/10/23 09:24:36;;;;;;;9.30;5.72;;;12.10;99.90;;;;;;5039994;28;20102;-77
2023/10/23 09:27:03;;;;;;;13.00;5.00;;;12.10;99.90;;;;;;5042686;28;20038;-77
2023/10/23 09:29:31;;;;;;;11.93;4.88;;;12.10;99.90;;;;;;5035193;28;20045;-77
2023/10/23 09:31:58;;;;;;;9.82;4.25;;;12.00;99.90;;;;;;5028862;28;20042;-77
2023/10/23 09:34:27;;;;;;;7.85;4.90;;;12.00;99.90;;;;;;5023349;28;20662;-77
2023/10/23 09:36:55;;;;;;;7.90;4.53;;;11.90;99.90;;;;;;5032685;28;20053;-77
2023/10/23 09:39:22;;;;;;;8.73;4.78;;;11.80;99.90;;;;;;5036123;28;20053;-78
2023/10/23 09:41:50;;;;;;;11.30;4.40;;;11.80;99.90;;;;;;5028074;28;20560;-77
2023/10/23 09:44:17;;;;;;;9.88;4.90;;;11.70;99.90;;;;;;5035272;28;20065;-77
2023/10/23 09:46:48;;;;;;;11.80;4.93;;;11.70;99.90;;;;;;5032241;28;20069;-79
2023/10/23 09:49:16;;;;;;;11.38;6.03;;;11.70;99.90;;;;;;5027553;28;20661;-77
2023/10/23 09:51:48;;;;;;;10.35;5.43;;;11.50;99.90;;;;;;5056862;22;20027;-77
2023/10/23 09:54:19;;;;;;;10.52;5.78;;;11.50;99.90;;;;;;5009887;28;20184;-77
2023/10/23 09:56:51;;;;;;;11.27;5.85;;;11.40;99.90;;;;;;5006673;28;20129;-77
2023/10/23 09:59:27;;;;;;;11.90;5.40;;;11.40;99.90;;;;;;5006890;28;20054;-77
2023/10/23 10:01:59;;;;;;;12.55;7.28;;;11.40;99.90;;;;;;5005713;28;20403;-77
2023/10/23 10:04:55;;;;;;;15.25;8.13;;;11.40;99.90;;;;;;5000799;28;20109;-77
2023/10/23 10:07:29;;;;;;;20.92;7.75;;;11.30;99.90;;;;;;5012133;28;20049;-77
2023/10/23 10:09:57;;;;;;;19.25;7.78;;;11.40;99.90;;;;;;5009535;28;20050;-77
2023/10/23 10:12:25;;;;;;;20.55;8.90;;;11.40;99.90;;;;;;5005821;28;20054;-77
2023/10/23 10:14:55;;;;;;;21.40;10.70;;;11.50;99.90;;;;;;5004249;28;20469;-77
2023/10/23 10:17:23;;;;;;;19.58;10.07;;;11.50;99.90;;;;;;5002779;28;20077;-77
2023/10/23 10:19:50;;;;;;;19.00;9.10;;;11.50;99.90;;;;;;5001878;28;20050;-77
2023/10/23 10:22:26;;;;;;;18.33;8.57;;;11.50;99.90;;;;;;4998992;28;20089;-77
2023/10/23 10:24:54;;;;;;;27.15;10.68;;;11.60;99.90;;;;;;5008445;28;20133;-77
2023/10/23 10:27:21;;;;;;;26.80;10.00;;;11.70;99.90;;;;;;5002797;28;20050;-77
2023/10/23 10:29:48;;;;;;;20.17;9.35;;;11.70;99.90;;;;;;5006093;28;20100;-77
2023/10/23 10:32:15;;;;;;;23.05;8.73;;;11.80;99.90;;;;;;4992379;28;20042;-77
2023/10/23 10:34:53;;;;;;;15.05;8.27;;;11.90;99.90;;;;;;5008566;28;20068;-77
2023/10/23 10:37:29;;;;;;;17.80;8.88;;;11.90;99.90;;;;;;5009396;28;20079;-77
2023/10/23 10:39:56;;;;;;;18.00;8.45;;;12.00;99.90;;;;;;5008461;28;20050;-77
2023/10/23 10:42:25;;;;;;;19.88;8.20;;;12.00;99.90;;;;;;5001750;28;20050;-77
2023/10/23 10:44:52;;;;;;;16.67;8.60;;;12.00;99.90;;;;;;5005128;28;20049;-77
2023/10/23 10:47:20;;;;;;;19.58;8.23;;;12.10;99.90;;;;;;5000653;28;20532;-77
2023/10/23 10:49:50;;;;;;;19.20;8.45;;;12.10;99.90;;;;;;5007348;28;20053;-77
2023/10/23 10:52:32;;;;;;;13.98;8.95;;;12.20;99.90;;;;;;5007544;28;20398;-77
2023/10/23 10:55:09;;;;;;;16.92;6.90;;;12.20;99.90;;;;;;5004888;28;20054;-77
2023/10/23 10:57:39;;;;;;;16.17;7.95;;;12.30;99.90;;;;;;5001673;28;20049;-77
2023/10/23 11:00:10;;;;;;;17.38;8.05;;;12.30;99.90;;;;;;5005796;28;20477;-77
2023/10/23 11:02:37;;;;;;;18.48;8.27;;;12.30;99.90;;;;;;5002332;28;20489;-77
2023/10/23 11:05:11;;;;;;;15.07;8.00;;;12.20;99.90;;;;;;5011132;28;20042;-77
2023/10/23 11:07:38;;;;;;;19.85;8.38;;;12.10;99.90;;;;;;5007613;28;20045;-77
2023/10/23 11:10:05;;;;;;;18.88;8.50;;;12.00;99.90;;;;;;5006808;28;20042;-77
2023/10/23 11:12:32;;;;;;;17.55;8.50;;;12.10;99.90;;;;;;5000254;28;20671;-77
2023/10/23 11:14:59;;;;;;;19.77;8.98;;;12.20;99.90;;;;;;5004833;28;20050;-77
2023/10/23 11:17:26;;;;;;;14.25;8.65;;;12.20;99.90;;;;;;4994407;28;20108;-77
2023/10/23 11:19:53;;;;;;;15.43;7.53;;;12.30;99.90;;;;;;5011400;28;20071;-77
2023/10/23 11:22:21;;;;;;;14.98;7.05;;;12.30;99.90;;;;;;5005074;28;20128;-77
2023/10/23 11:24:48;;;;;;;11.27;7.38;;;12.30;99.90;;;;;;4996729;28;20497;-77
2023/10/23 11:27:15;;;;;;;12.40;7.07;;;12.30;99.90;;;;;;4998965;28;20049;-77
2023/10/23 11:29:44;;;;;;;11.73;6.32;;;12.40;99.90;;;;;;5001577;28;20069;-77
2023/10/23 11:32:13;;;;;;;11.73;7.32;;;12.40;99.90;;;;;;4996718;28;20136;-77
2023/10/23 11:34:41;;;;;;;10.35;7.00;;;12.40;99.90;;;;;;5012100;28;20079;-77
2023/10/23 11:37:09;;;;;;;16.58;7.20;;;12.40;99.90;;;;;;4986490;28;20487;-77
2023/10/23 11:39:38;;;;;;;12.25;6.75;;;12.40;99.90;;;;;;5009087;28;20046;-77
2023/10/23 11:42:05;;;;;;;15.18;6.70;;;12.40;99.90;;;;;;4993481;28;20042;-77
2023/10/23 11:44:34;;;;;;;15.32;5.82;;;12.40;99.90;;;;;;5007490;28;20494;-77
2023/10/23 11:47:04;;;;;;;14.68;5.53;;;12.30;99.90;;;;;;5008122;28;20421;-77
2023/10/23 11:49:31;;;;;;;7.72;4.95;;;12.30;99.90;;;;;;5011664;28;20073;-77
2023/10/23 11:52:00;;;;;;;8.98;4.93;;;12.30;99.90;;;;;;5006709;28;20038;-77
2023/10/23 11:54:28;;;;;;;11.07;5.30;;;12.30;99.90;;;;;;5011769;28;20052;-77
2023/10/23 11:56:56;;;;;;;9.50;4.82;;;12.50;99.90;;;;;;5006371;28;20552;-77
2023/10/23 11:59:25;;;;;;;9.25;5.45;;;12.60;99.90;;;;;;5011424;28;20053;-77
2023/10/23 12:01:54;;;;;;;9.57;5.25;;;12.70;99.90;;;;;;5013463;28;20046;-77
2023/10/23 12:04:22;;;;;;;9.65;4.97;;;12.80;99.90;;;;;;5012013;28;20046;-79
2023/10/23 12:06:49;;;;;;;9.18;4.95;;;12.80;99.90;;;;;;5007843;28;20468;-77
2023/10/23 12:09:15;;;;;;;10.52;5.60;;;12.90;99.90;;;;;;4998262;28;20416;-77
2023/10/23 12:11:42;;;;;;;13.52;5.90;;;13.00;99.90;;;;;;5002744;28;20095;-77
2023/10/23 12:14:09;;;;;;;10.27;5.00;;;13.00;99.90;;;;;;5011022;28;20112;-77
2023/10/23 12:16:36;;;;;;;8.27;4.80;;;13.00;99.90;;;;;;5014101;28;20050;-77
2023/10/23 12:19:04;;;;;;;12.10;6.00;;;13.00;99.90;;;;;;5011737;28;20596;-77
2023/10/23 12:21:31;;;;;;;10.93;5.25;;;13.00;99.90;;;;;;5006674;28;20216;-77
2023/10/23 12:23:57;;;;;;;10.73;6.32;;;12.90;99.90;;;;;;5007690;28;20085;-77
2023/10/23 12:26:25;;;;;;;10.80;6.00;;;13.00;99.90;;;;;;5000736;28;20057;-77
2023/10/23 12:28:52;;;;;;;10.88;4.70;;;12.90;99.90;;;;;;5009455;28;20128;-77
2023/10/23 12:31:18;;;;;;;8.93;4.85;;;12.90;99.90;;;;;;5011110;28;20045;-77
2023/10/23 12:33:49;;;;;;;9.10;5.28;;;12.80;99.90;;;;;;5010464;28;20046;-77
2023/10/23 12:36:17;;;;;;;9.75;5.20;;;12.80;99.90;;;;;;5003930;28;20054;-77
2023/10/23 12:38:43;;;;;;;12.95;5.88;;;12.70;99.90;;;;;;4999330;28;20479;-77
2023/10/23 12:41:10;;;;;;;22.45;19.30;;;12.70;99.90;;;;;;5001667;28;20043;-77
2023/10/23 12:43:37;;;;;;;15.25;10.90;;;12.70;99.90;;;;;;5007862;28;20129;-77
2023/10/23 12:46:04;;;;;;;13.88;10.93;;;12.80;99.90;;;;;;5009564;28;20053;-77
2023/10/23 12:48:31;;;;;;;9.25;5.75;;;12.90;99.90;;;;;;4999551;28;20549;-77
2023/10/23 12:50:58;;;;;;;11.77;6.55;;;12.90;99.90;;;;;;4995929;28;20141;-77